sensor_id;sensor_type;location;lat;lon;timestamp;P1;durP1;ratioP1;P2;durP2;ratioP2
50709;SDS011;37033;49.994;21.992;2023-08-21T00:01:14;15.80;;;14.30;;
50709;SDS011;37033;49.994;21.992;2023-08-21T00:03:45;17.10;;;15.30;;
50709;SDS011;37033;49.994;21.992;2023-08-21T00:06:15;16.00;;;14.60;;
50709;SDS011;37033;49.994;21.992;2023-08-21T00:08:46;16.90;;;15.30;;
50709;SDS011;37033;49.994;21.992;2023-08-21T00:11:16;17.80;;;15.90;;
50709;SDS011;37033;49.994;21.992;2023-08-21T00:13:47;16.50;;;15.00;;
50709;SDS011;37033;49.994;21.992;2023-08-21T00:16:18;16.60;;;14.50;;
50709;SDS011;37033;49.994;21.992;2023-08-21T00:18:49;17.20;;;15.60;;
50709;SDS011;37033;49.994;21.992;2023-08-21T00:21:19;19.20;;;15.10;;
50709;SDS011;37033;49.994;21.992;2023-08-21T00:23:50;16.20;;;14.50;;
50709;SDS011;37033;49.994;21.992;2023-08-21T00:26:21;16.70;;;15.00;;
50709;SDS011;37033;49.994;21.992;2023-08-21T00:28:52;16.80;;;15.20;;
50709;SDS011;37033;49.994;21.992;2023-08-21T00:31:22;18.00;;;16.10;;
50709;SDS011;37033;49.994;21.992;2023-08-21T00:33:53;17.00;;;15.40;;
50709;SDS011;37033;49.994;21.992;2023-08-21T00:36:24;17.30;;;15.20;;
50709;SDS011;37033;49.994;21.992;2023-08-21T00:38:54;17.20;;;15.50;;
50709;SDS011;37033;49.994;21.992;2023-08-21T00:41:25;17.30;;;15.50;;
50709;SDS011;37033;49.994;21.992;2023-08-21T00:43:56;17.00;;;15.30;;
50709;SDS011;37033;49.994;21.992;2023-08-21T00:46:26;18.10;;;15.30;;
50709;SDS011;37033;49.994;21.992;2023-08-21T00:48:57;16.90;;;15.20;;
50709;SDS011;37033;49.994;21.992;2023-08-21T00:51:28;16.60;;;15.00;;
50709;SDS011;37033;49.994;21.992;2023-08-21T00:53:59;16.50;;;15.00;;
50709;SDS011;37033;49.994;21.992;2023-08-21T00:56:30;22.90;;;15.90;;
50709;SDS011;37033;49.994;21.992;2023-08-21T00:59:01;16.90;;;15.20;;
50709;SDS011;37033;49.994;21.992;2023-08-21T01:01:32;18.30;;;16.20;;
50709;SDS011;37033;49.994;21.992;2023-08-21T01:04:04;16.70;;;15.20;;
50709;SDS011;37033;49.994;21.992;2023-08-21T01:06:36;17.10;;;15.40;;
50709;SDS011;37033;49.994;21.992;2023-08-21T01:09:11;17.30;;;15.50;;
50709;SDS011;37033;49.994;21.992;2023-08-21T01:11:49;16.90;;;15.30;;
50709;SDS011;37033;49.994;21.992;2023-08-21T01:14:25;19.70;;;16.20;;
50709;SDS011;37033;49.994;21.992;2023-08-21T01:17:00;17.30;;;15.70;;
50709;SDS011;37033;49.994;21.992;2023-08-21T01:19:35;17.30;;;15.60;;
50709;SDS011;37033;49.994;21.992;2023-08-21T01:22:10;20.40;;;15.00;;
50709;SDS011;37033;49.994;21.992;2023-08-21T01:24:41;16.30;;;14.80;;
50709;SDS011;37033;49.994;21.992;2023-08-21T01:27:12;18.00;;;15.40;;
50709;SDS011;37033;49.994;21.992;2023-08-21T01:29:43;17.80;;;15.70;;
50709;SDS011;37033;49.994;21.992;2023-08-21T01:32:16;17.30;;;15.70;;
50709;SDS011;37033;49.994;21.992;2023-08-21T01:34:50;20.30;;;16.70;;
50709;SDS011;37033;49.994;21.992;2023-08-21T01:37:24;16.10;;;14.70;;
50709;SDS011;37033;49.994;21.992;2023-08-21T01:39:55;17.50;;;15.70;;
50709;SDS011;37033;49.994;21.992;2023-08-21T01:42:28;18.10;;;16.20;;
50709;SDS011;37033;49.994;21.992;2023-08-21T01:44:59;17.70;;;15.50;;
50709;SDS011;37033;49.994;21.992;2023-08-21T01:47:30;18.40;;;16.10;;
50709;SDS011;37033;49.994;21.992;2023-08-21T01:50:00;16.30;;;14.70;;
50709;SDS011;37033;49.994;21.992;2023-08-21T01:52:31;18.70;;;15.20;;
50709;SDS011;37033;49.994;21.992;2023-08-21T01:55:03;19.00;;;16.00;;
50709;SDS011;37033;49.994;21.992;2023-08-21T01:57:36;17.40;;;15.70;;
50709;SDS011;37033;49.994;21.992;2023-08-21T02:00:09;19.00;;;16.20;;
50709;SDS011;37033;49.994;21.992;2023-08-21T02:05:10;17.80;;;14.50;;
50709;SDS011;37033;49.994;21.992;2023-08-21T02:07:41;20.10;;;15.50;;
50709;SDS011;37033;49.994;21.992;2023-08-21T02:10:12;16.10;;;14.50;;
50709;SDS011;37033;49.994;21.992;2023-08-21T02:12:43;23.20;;;16.20;;
50709;SDS011;37033;49.994;21.992;2023-08-21T02:15:13;18.00;;;15.90;;
50709;SDS011;37033;49.994;21.992;2023-08-21T02:17:44;16.80;;;15.20;;
50709;SDS011;37033;49.994;21.992;2023-08-21T02:20:15;16.90;;;15.20;;
50709;SDS011;37033;49.994;21.992;2023-08-21T02:22:46;16.50;;;15.00;;
50709;SDS011;37033;49.994;21.992;2023-08-21T02:25:17;18.80;;;15.70;;
50709;SDS011;37033;49.994;21.992;2023-08-21T02:27:48;17.80;;;15.90;;
50709;SDS011;37033;49.994;21.992;2023-08-21T02:30:18;17.90;;;14.90;;
50709;SDS011;37033;49.994;21.992;2023-08-21T02:32:53;17.10;;;15.50;;
50709;SDS011;37033;49.994;21.992;2023-08-21T02:35:23;22.40;;;15.10;;
50709;SDS011;37033;49.994;21.992;2023-08-21T02:37:54;20.90;;;16.30;;
50709;SDS011;37033;49.994;21.992;2023-08-21T02:40:25;17.90;;;15.90;;
50709;SDS011;37033;49.994;21.992;2023-08-21T02:42:55;18.20;;;16.30;;
50709;SDS011;37033;49.994;21.992;2023-08-21T02:45:26;17.50;;;15.70;;
50709;SDS011;37033;49.994;21.992;2023-08-21T02:47:56;19.60;;;17.30;;
50709;SDS011;37033;49.994;21.992;2023-08-21T02:50:27;18.50;;;16.60;;
50709;SDS011;37033;49.994;21.992;2023-08-21T02:52:58;18.50;;;16.60;;
50709;SDS011;37033;49.994;21.992;2023-08-21T02:55:28;18.10;;;15.80;;
50709;SDS011;37033;49.994;21.992;2023-08-21T02:57:59;18.00;;;16.30;;
50709;SDS011;37033;49.994;21.992;2023-08-21T03:00:30;21.40;;;16.70;;
50709;SDS011;37033;49.994;21.992;2023-08-21T03:03:01;22.30;;;17.40;;
50709;SDS011;37033;49.994;21.992;2023-08-21T03:05:33;18.60;;;16.70;;
50709;SDS011;37033;49.994;21.992;2023-08-21T03:08:06;19.60;;;16.20;;
50709;SDS011;37033;49.994;21.992;2023-08-21T03:10:36;19.20;;;16.70;;
50709;SDS011;37033;49.994;21.992;2023-08-21T03:13:07;24.00;;;16.60;;
50709;SDS011;37033;49.994;21.992;2023-08-21T03:15:37;18.30;;;16.40;;
50709;SDS011;37033;49.994;21.992;2023-08-21T03:18:08;18.40;;;16.20;;
50709;SDS011;37033;49.994;21.992;2023-08-21T03:20:39;19.40;;;17.40;;
50709;SDS011;37033;49.994;21.992;2023-08-21T03:23:14;22.30;;;17.00;;
50709;SDS011;37033;49.994;21.992;2023-08-21T03:25:45;17.90;;;16.20;;
50709;SDS011;37033;49.994;21.992;2023-08-21T03:28:15;17.50;;;15.80;;
50709;SDS011;37033;49.994;21.992;2023-08-21T03:30:46;18.60;;;16.70;;
50709;SDS011;37033;49.994;21.992;2023-08-21T03:33:17;23.30;;;17.30;;
50709;SDS011;37033;49.994;21.992;2023-08-21T03:35:47;18.00;;;15.00;;
50709;SDS011;37033;49.994;21.992;2023-08-21T03:38:24;18.20;;;16.20;;
50709;SDS011;37033;49.994;21.992;2023-08-21T03:40:54;17.50;;;15.70;;
50709;SDS011;37033;49.994;21.992;2023-08-21T03:43:25;20.40;;;16.10;;
50709;SDS011;37033;49.994;21.992;2023-08-21T03:45:56;18.50;;;14.80;;
50709;SDS011;37033;49.994;21.992;2023-08-21T03:48:26;17.80;;;15.90;;
50709;SDS011;37033;49.994;21.992;2023-08-21T03:50:57;23.30;;;18.00;;
50709;SDS011;37033;49.994;21.992;2023-08-21T03:53:28;16.50;;;14.80;;
50709;SDS011;37033;49.994;21.992;2023-08-21T03:55:58;17.20;;;14.60;;
50709;SDS011;37033;49.994;21.992;2023-08-21T03:58:29;16.10;;;14.50;;
50709;SDS011;37033;49.994;21.992;2023-08-21T04:01:00;17.70;;;15.60;;
50709;SDS011;37033;49.994;21.992;2023-08-21T04:03:31;16.20;;;14.10;;
50709;SDS011;37033;49.994;21.992;2023-08-21T04:06:02;21.30;;;15.40;;
50709;SDS011;37033;49.994;21.992;2023-08-21T04:08:33;16.90;;;14.50;;
50709;SDS011;37033;49.994;21.992;2023-08-21T04:11:04;18.20;;;14.60;;
50709;SDS011;37033;49.994;21.992;2023-08-21T04:13:35;17.00;;;15.30;;
50709;SDS011;37033;49.994;21.992;2023-08-21T04:16:05;16.90;;;15.30;;
50709;SDS011;37033;49.994;21.992;2023-08-21T04:18:38;16.70;;;15.10;;
50709;SDS011;37033;49.994;21.992;2023-08-21T04:21:09;16.50;;;14.90;;
50709;SDS011;37033;49.994;21.992;2023-08-21T04:23:40;17.40;;;15.50;;
50709;SDS011;37033;49.994;21.992;2023-08-21T04:26:10;18.80;;;16.50;;
50709;SDS011;37033;49.994;21.992;2023-08-21T04:28:41;18.70;;;15.10;;
50709;SDS011;37033;49.994;21.992;2023-08-21T04:31:12;18.40;;;16.50;;
50709;SDS011;37033;49.994;21.992;2023-08-21T04:33:43;18.80;;;16.90;;
50709;SDS011;37033;49.994;21.992;2023-08-21T04:36:16;18.10;;;16.20;;
50709;SDS011;37033;49.994;21.992;2023-08-21T04:38:47;19.60;;;16.90;;
50709;SDS011;37033;49.994;21.992;2023-08-21T04:41:18;19.30;;;17.20;;
50709;SDS011;37033;49.994;21.992;2023-08-21T04:43:49;21.20;;;17.50;;
50709;SDS011;37033;49.994;21.992;2023-08-21T04:46:19;19.30;;;17.10;;
50709;SDS011;37033;49.994;21.992;2023-08-21T04:48:50;20.00;;;17.70;;
50709;SDS011;37033;49.994;21.992;2023-08-21T04:51:21;18.70;;;16.90;;
50709;SDS011;37033;49.994;21.992;2023-08-21T04:53:52;19.80;;;17.40;;
50709;SDS011;37033;49.994;21.992;2023-08-21T04:56:22;20.00;;;18.00;;
50709;SDS011;37033;49.994;21.992;2023-08-21T04:58:53;20.20;;;18.10;;
50709;SDS011;37033;49.994;21.992;2023-08-21T05:01:24;22.50;;;17.00;;
50709;SDS011;37033;49.994;21.992;2023-08-21T05:03:55;18.90;;;16.90;;
50709;SDS011;37033;49.994;21.992;2023-08-21T05:06:26;25.80;;;18.10;;
50709;SDS011;37033;49.994;21.992;2023-08-21T05:08:56;19.30;;;17.10;;
50709;SDS011;37033;49.994;21.992;2023-08-21T05:11:27;19.30;;;17.00;;
50709;SDS011;37033;49.994;21.992;2023-08-21T05:13:58;20.00;;;17.80;;
50709;SDS011;37033;49.994;21.992;2023-08-21T05:16:28;19.30;;;17.40;;
50709;SDS011;37033;49.994;21.992;2023-08-21T05:18:59;20.80;;;17.20;;
50709;SDS011;37033;49.994;21.992;2023-08-21T05:21:30;20.10;;;17.40;;
50709;SDS011;37033;49.994;21.992;2023-08-21T05:24:01;19.10;;;17.00;;
50709;SDS011;37033;49.994;21.992;2023-08-21T05:26:32;19.10;;;17.10;;
50709;SDS011;37033;49.994;21.992;2023-08-21T05:29:04;23.20;;;17.90;;
50709;SDS011;37033;49.994;21.992;2023-08-21T05:31:34;18.50;;;16.70;;
50709;SDS011;37033;49.994;21.992;2023-08-21T05:34:05;19.90;;;17.50;;
50709;SDS011;37033;49.994;21.992;2023-08-21T05:36:36;18.80;;;16.80;;
50709;SDS011;37033;49.994;21.992;2023-08-21T05:39:07;18.20;;;16.30;;
50709;SDS011;37033;49.994;21.992;2023-08-21T05:41:38;26.40;;;17.50;;
50709;SDS011;37033;49.994;21.992;2023-08-21T05:44:10;18.50;;;16.70;;
50709;SDS011;37033;49.994;21.992;2023-08-21T05:46:41;21.80;;;16.60;;
50709;SDS011;37033;49.994;21.992;2023-08-21T05:49:12;20.80;;;17.50;;
50709;SDS011;37033;49.994;21.992;2023-08-21T05:51:42;20.40;;;17.00;;
50709;SDS011;37033;49.994;21.992;2023-08-21T05:54:13;18.20;;;16.30;;
50709;SDS011;37033;49.994;21.992;2023-08-21T05:56:43;17.00;;;15.30;;
50709;SDS011;37033;49.994;21.992;2023-08-21T05:59:23;18.50;;;15.90;;
50709;SDS011;37033;49.994;21.992;2023-08-21T06:01:58;20.50;;;15.70;;
50709;SDS011;37033;49.994;21.992;2023-08-21T06:04:29;16.30;;;14.60;;
50709;SDS011;37033;49.994;21.992;2023-08-21T06:07:00;17.00;;;15.30;;
50709;SDS011;37033;49.994;21.992;2023-08-21T06:09:31;16.40;;;14.70;;
50709;SDS011;37033;49.994;21.992;2023-08-21T06:12:02;17.80;;;14.40;;
50709;SDS011;37033;49.994;21.992;2023-08-21T06:14:34;15.70;;;14.20;;
50709;SDS011;37033;49.994;21.992;2023-08-21T06:17:05;20.10;;;14.70;;
50709;SDS011;37033;49.994;21.992;2023-08-21T06:19:37;17.30;;;14.40;;
50709;SDS011;37033;49.994;21.992;2023-08-21T06:22:08;15.70;;;14.30;;
50709;SDS011;37033;49.994;21.992;2023-08-21T06:24:39;16.00;;;14.50;;
50709;SDS011;37033;49.994;21.992;2023-08-21T06:27:09;16.10;;;13.90;;
50709;SDS011;37033;49.994;21.992;2023-08-21T06:29:40;15.70;;;14.20;;
50709;SDS011;37033;49.994;21.992;2023-08-21T06:32:11;14.40;;;13.00;;
50709;SDS011;37033;49.994;21.992;2023-08-21T06:34:41;16.00;;;14.00;;
50709;SDS011;37033;49.994;21.992;2023-08-21T06:37:12;15.20;;;13.50;;
50709;SDS011;37033;49.994;21.992;2023-08-21T06:39:43;14.00;;;12.70;;
50709;SDS011;37033;49.994;21.992;2023-08-21T06:42:13;14.80;;;13.40;;
50709;SDS011;37033;49.994;21.992;2023-08-21T06:44:44;14.00;;;12.80;;
50709;SDS011;37033;49.994;21.992;2023-08-21T06:47:15;14.10;;;12.90;;
50709;SDS011;37033;49.994;21.992;2023-08-21T06:49:45;14.10;;;12.80;;
50709;SDS011;37033;49.994;21.992;2023-08-21T06:52:16;13.70;;;12.20;;
50709;SDS011;37033;49.994;21.992;2023-08-21T06:54:47;14.90;;;13.40;;
50709;SDS011;37033;49.994;21.992;2023-08-21T06:57:18;14.30;;;12.90;;
50709;SDS011;37033;49.994;21.992;2023-08-21T06:59:49;14.30;;;13.00;;
50709;SDS011;37033;49.994;21.992;2023-08-21T07:02:20;14.50;;;13.10;;
50709;SDS011;37033;49.994;21.992;2023-08-21T07:04:51;14.40;;;13.10;;
50709;SDS011;37033;49.994;21.992;2023-08-21T07:07:22;13.90;;;12.60;;
50709;SDS011;37033;49.994;21.992;2023-08-21T07:09:52;13.20;;;11.70;;
50709;SDS011;37033;49.994;21.992;2023-08-21T07:12:23;12.80;;;11.70;;
50709;SDS011;37033;49.994;21.992;2023-08-21T07:14:54;12.70;;;11.40;;
50709;SDS011;37033;49.994;21.992;2023-08-21T07:17:24;13.90;;;12.80;;
50709;SDS011;37033;49.994;21.992;2023-08-21T07:19:55;12.50;;;11.40;;
50709;SDS011;37033;49.994;21.992;2023-08-21T07:22:26;15.30;;;12.20;;
50709;SDS011;37033;49.994;21.992;2023-08-21T07:24:57;13.80;;;11.80;;
50709;SDS011;37033;49.994;21.992;2023-08-21T07:27:28;11.90;;;10.70;;
50709;SDS011;37033;49.994;21.992;2023-08-21T07:29:58;12.70;;;11.60;;
50709;SDS011;37033;49.994;21.992;2023-08-21T07:32:30;13.10;;;11.70;;
50709;SDS011;37033;49.994;21.992;2023-08-21T07:35:00;12.20;;;11.00;;
50709;SDS011;37033;49.994;21.992;2023-08-21T07:37:31;12.50;;;11.40;;
50709;SDS011;37033;49.994;21.992;2023-08-21T07:40:03;12.20;;;11.10;;
50709;SDS011;37033;49.994;21.992;2023-08-21T07:42:35;11.70;;;10.80;;
50709;SDS011;37033;49.994;21.992;2023-08-21T07:45:07;11.20;;;10.20;;
50709;SDS011;37033;49.994;21.992;2023-08-21T07:47:39;10.10;;;9.30;;
50709;SDS011;37033;49.994;21.992;2023-08-21T07:50:10;10.50;;;9.60;;
50709;SDS011;37033;49.994;21.992;2023-08-21T07:52:42;10.70;;;9.70;;
50709;SDS011;37033;49.994;21.992;2023-08-21T07:55:12;13.30;;;10.30;;
50709;SDS011;37033;49.994;21.992;2023-08-21T07:57:43;10.80;;;9.70;;
50709;SDS011;37033;49.994;21.992;2023-08-21T08:00:14;10.10;;;9.20;;
50709;SDS011;37033;49.994;21.992;2023-08-21T08:02:45;10.20;;;9.40;;
50709;SDS011;37033;49.994;21.992;2023-08-21T08:05:16;10.20;;;9.10;;
50709;SDS011;37033;49.994;21.992;2023-08-21T08:07:46;8.70;;;8.20;;
50709;SDS011;37033;49.994;21.992;2023-08-21T08:10:17;9.60;;;8.50;;
50709;SDS011;37033;49.994;21.992;2023-08-21T08:12:48;9.10;;;8.30;;
50709;SDS011;37033;49.994;21.992;2023-08-21T08:15:19;10.50;;;8.80;;
50709;SDS011;37033;49.994;21.992;2023-08-21T08:17:53;9.50;;;8.60;;
50709;SDS011;37033;49.994;21.992;2023-08-21T08:20:25;11.40;;;10.40;;
50709;SDS011;37033;49.994;21.992;2023-08-21T08:22:55;9.30;;;8.50;;
50709;SDS011;37033;49.994;21.992;2023-08-21T08:25:26;9.40;;;8.50;;
50709;SDS011;37033;49.994;21.992;2023-08-21T08:27:57;9.30;;;8.50;;
50709;SDS011;37033;49.994;21.992;2023-08-21T08:30:28;8.60;;;7.90;;
50709;SDS011;37033;49.994;21.992;2023-08-21T08:32:58;11.00;;;8.80;;
50709;SDS011;37033;49.994;21.992;2023-08-21T08:35:29;8.80;;;7.90;;
50709;SDS011;37033;49.994;21.992;2023-08-21T08:38:01;10.30;;;8.60;;
50709;SDS011;37033;49.994;21.992;2023-08-21T08:40:32;8.80;;;8.00;;
50709;SDS011;37033;49.994;21.992;2023-08-21T08:43:06;8.90;;;8.20;;
50709;SDS011;37033;49.994;21.992;2023-08-21T08:45:37;8.60;;;7.90;;
50709;SDS011;37033;49.994;21.992;2023-08-21T08:48:09;8.30;;;7.50;;
50709;SDS011;37033;49.994;21.992;2023-08-21T08:50:41;8.90;;;8.00;;
50709;SDS011;37033;49.994;21.992;2023-08-21T08:53:13;8.20;;;7.40;;
50709;SDS011;37033;49.994;21.992;2023-08-21T08:55:44;8.20;;;7.50;;
50709;SDS011;37033;49.994;21.992;2023-08-21T08:58:15;8.20;;;7.40;;
50709;SDS011;37033;49.994;21.992;2023-08-21T09:00:46;7.70;;;7.00;;
50709;SDS011;37033;49.994;21.992;2023-08-21T09:03:16;7.70;;;7.00;;
50709;SDS011;37033;49.994;21.992;2023-08-21T09:05:47;8.50;;;7.30;;
50709;SDS011;37033;49.994;21.992;2023-08-21T09:08:18;7.60;;;7.00;;
50709;SDS011;37033;49.994;21.992;2023-08-21T09:10:49;7.80;;;7.20;;
50709;SDS011;37033;49.994;21.992;2023-08-21T09:13:22;7.90;;;7.20;;
50709;SDS011;37033;49.994;21.992;2023-08-21T09:15:54;7.40;;;6.80;;
50709;SDS011;37033;49.994;21.992;2023-08-21T09:18:25;7.40;;;6.70;;
50709;SDS011;37033;49.994;21.992;2023-08-21T09:20:56;8.10;;;6.30;;
50709;SDS011;37033;49.994;21.992;2023-08-21T09:23:30;7.80;;;6.40;;
50709;SDS011;37033;49.994;21.992;2023-08-21T09:26:01;7.80;;;6.90;;
50709;SDS011;37033;49.994;21.992;2023-08-21T09:28:32;7.40;;;6.80;;
50709;SDS011;37033;49.994;21.992;2023-08-21T09:31:03;6.70;;;6.20;;
50709;SDS011;37033;49.994;21.992;2023-08-21T09:33:33;6.40;;;5.90;;
50709;SDS011;37033;49.994;21.992;2023-08-21T09:36:05;8.40;;;7.30;;
50709;SDS011;37033;49.994;21.992;2023-08-21T09:38:39;7.50;;;6.00;;
50709;SDS011;37033;49.994;21.992;2023-08-21T09:41:14;9.00;;;6.70;;
50709;SDS011;37033;49.994;21.992;2023-08-21T09:43:50;6.60;;;6.10;;
50709;SDS011;37033;49.994;21.992;2023-08-21T09:46:25;9.20;;;6.10;;
50709;SDS011;37033;49.994;21.992;2023-08-21T09:48:56;6.30;;;5.70;;
50709;SDS011;37033;49.994;21.992;2023-08-21T09:51:27;5.90;;;5.40;;
50709;SDS011;37033;49.994;21.992;2023-08-21T09:53:58;7.30;;;6.50;;
50709;SDS011;37033;49.994;21.992;2023-08-21T09:56:31;6.60;;;6.10;;
50709;SDS011;37033;49.994;21.992;2023-08-21T09:59:02;6.10;;;5.70;;
50709;SDS011;37033;49.994;21.992;2023-08-21T10:01:34;6.70;;;6.10;;
50709;SDS011;37033;49.994;21.992;2023-08-21T10:04:07;6.70;;;6.20;;
50709;SDS011;37033;49.994;21.992;2023-08-21T10:06:40;6.70;;;6.10;;
50709;SDS011;37033;49.994;21.992;2023-08-21T10:09:11;8.00;;;6.70;;
50709;SDS011;37033;49.994;21.992;2023-08-21T10:11:43;7.60;;;6.60;;
50709;SDS011;37033;49.994;21.992;2023-08-21T10:14:14;6.70;;;6.10;;
50709;SDS011;37033;49.994;21.992;2023-08-21T10:16:46;9.60;;;6.70;;
50709;SDS011;37033;49.994;21.992;2023-08-21T10:19:18;7.80;;;7.10;;
50709;SDS011;37033;49.994;21.992;2023-08-21T10:21:49;7.20;;;6.50;;
50709;SDS011;37033;49.994;21.992;2023-08-21T10:24:27;7.40;;;6.80;;
50709;SDS011;37033;49.994;21.992;2023-08-21T10:27:05;7.40;;;6.80;;
50709;SDS011;37033;49.994;21.992;2023-08-21T10:29:36;8.10;;;7.30;;
50709;SDS011;37033;49.994;21.992;2023-08-21T10:32:08;14.40;;;7.50;;
50709;SDS011;37033;49.994;21.992;2023-08-21T10:34:40;7.40;;;6.70;;
50709;SDS011;37033;49.994;21.992;2023-08-21T10:37:22;14.70;;;8.30;;
50709;SDS011;37033;49.994;21.992;2023-08-21T10:39:55;8.90;;;8.00;;
50709;SDS011;37033;49.994;21.992;2023-08-21T10:42:38;9.00;;;7.30;;
50709;SDS011;37033;49.994;21.992;2023-08-21T10:45:13;8.20;;;7.50;;
50709;SDS011;37033;49.994;21.992;2023-08-21T10:50:14;9.10;;;8.10;;
50709;SDS011;37033;49.994;21.992;2023-08-21T10:52:45;10.60;;;9.50;;
50709;SDS011;37033;49.994;21.992;2023-08-21T10:55:17;9.20;;;7.80;;
50709;SDS011;37033;49.994;21.992;2023-08-21T10:57:48;9.00;;;8.30;;
50709;SDS011;37033;49.994;21.992;2023-08-21T11:00:19;7.70;;;7.10;;
50709;SDS011;37033;49.994;21.992;2023-08-21T11:02:50;7.80;;;7.10;;
50709;SDS011;37033;49.994;21.992;2023-08-21T11:05:20;7.80;;;7.20;;
50709;SDS011;37033;49.994;21.992;2023-08-21T11:07:51;7.40;;;6.80;;
50709;SDS011;37033;49.994;21.992;2023-08-21T11:10:22;7.90;;;7.20;;
50709;SDS011;37033;49.994;21.992;2023-08-21T11:12:57;7.10;;;6.20;;
50709;SDS011;37033;49.994;21.992;2023-08-21T11:15:28;7.20;;;6.60;;
50709;SDS011;37033;49.994;21.992;2023-08-21T11:18:00;8.70;;;7.80;;
50709;SDS011;37033;49.994;21.992;2023-08-21T11:20:32;7.70;;;7.00;;
50709;SDS011;37033;49.994;21.992;2023-08-21T11:23:04;8.10;;;7.50;;
50709;SDS011;37033;49.994;21.992;2023-08-21T11:25:37;8.20;;;7.50;;
50709;SDS011;37033;49.994;21.992;2023-08-21T11:28:08;9.50;;;8.10;;
50709;SDS011;37033;49.994;21.992;2023-08-21T11:30:39;8.70;;;7.50;;
50709;SDS011;37033;49.994;21.992;2023-08-21T11:33:12;7.60;;;7.00;;
50709;SDS011;37033;49.994;21.992;2023-08-21T11:35:43;8.80;;;8.00;;
50709;SDS011;37033;49.994;21.992;2023-08-21T11:38:18;9.20;;;8.30;;
50709;SDS011;37033;49.994;21.992;2023-08-21T11:40:53;10.10;;;8.70;;
50709;SDS011;37033;49.994;21.992;2023-08-21T11:43:34;9.60;;;8.70;;
50709;SDS011;37033;49.994;21.992;2023-08-21T11:46:07;10.00;;;9.10;;
50709;SDS011;37033;49.994;21.992;2023-08-21T11:48:39;12.00;;;9.00;;
50709;SDS011;37033;49.994;21.992;2023-08-21T11:51:11;10.50;;;8.80;;
50709;SDS011;37033;49.994;21.992;2023-08-21T11:53:42;9.70;;;9.00;;
50709;SDS011;37033;49.994;21.992;2023-08-21T11:56:16;10.50;;;9.50;;
50709;SDS011;37033;49.994;21.992;2023-08-21T11:58:47;10.60;;;9.60;;
50709;SDS011;37033;49.994;21.992;2023-08-21T12:01:18;11.80;;;9.30;;
50709;SDS011;37033;49.994;21.992;2023-08-21T12:03:49;11.80;;;10.30;;
50709;SDS011;37033;49.994;21.992;2023-08-21T12:06:23;11.30;;;10.40;;
50709;SDS011;37033;49.994;21.992;2023-08-21T12:08:54;11.50;;;9.80;;
50709;SDS011;37033;49.994;21.992;2023-08-21T12:11:25;12.60;;;11.40;;
50709;SDS011;37033;49.994;21.992;2023-08-21T12:13:56;12.90;;;11.70;;
50709;SDS011;37033;49.994;21.992;2023-08-21T12:16:27;16.90;;;11.40;;
50709;SDS011;37033;49.994;21.992;2023-08-21T12:18:57;11.70;;;10.70;;
50709;SDS011;37033;49.994;21.992;2023-08-21T12:21:30;16.40;;;11.10;;
50709;SDS011;37033;49.994;21.992;2023-08-21T12:24:02;12.70;;;11.00;;
50709;SDS011;37033;49.994;21.992;2023-08-21T12:26:34;12.70;;;11.50;;
50709;SDS011;37033;49.994;21.992;2023-08-21T12:29:05;13.20;;;11.70;;
50709;SDS011;37033;49.994;21.992;2023-08-21T12:31:35;12.10;;;10.90;;
50709;SDS011;37033;49.994;21.992;2023-08-21T12:34:06;12.20;;;11.00;;
50709;SDS011;37033;49.994;21.992;2023-08-21T12:36:37;12.50;;;11.30;;
50709;SDS011;37033;49.994;21.992;2023-08-21T12:39:08;13.40;;;11.30;;
50709;SDS011;37033;49.994;21.992;2023-08-21T12:41:38;14.20;;;11.40;;
50709;SDS011;37033;49.994;21.992;2023-08-21T12:44:09;14.50;;;10.80;;
50709;SDS011;37033;49.994;21.992;2023-08-21T12:46:40;12.90;;;10.90;;
50709;SDS011;37033;49.994;21.992;2023-08-21T12:49:11;13.20;;;11.80;;
50709;SDS011;37033;49.994;21.992;2023-08-21T12:51:41;12.40;;;11.20;;
50709;SDS011;37033;49.994;21.992;2023-08-21T12:54:12;12.40;;;11.00;;
50709;SDS011;37033;49.994;21.992;2023-08-21T12:56:43;13.00;;;10.90;;
50709;SDS011;37033;49.994;21.992;2023-08-21T12:59:14;11.50;;;10.50;;
50709;SDS011;37033;49.994;21.992;2023-08-21T13:01:44;11.90;;;10.50;;
50709;SDS011;37033;49.994;21.992;2023-08-21T13:04:15;12.40;;;11.40;;
50709;SDS011;37033;49.994;21.992;2023-08-21T13:06:46;12.50;;;11.30;;
50709;SDS011;37033;49.994;21.992;2023-08-21T13:09:17;11.00;;;10.10;;
50709;SDS011;37033;49.994;21.992;2023-08-21T13:11:47;11.50;;;10.30;;
50709;SDS011;37033;49.994;21.992;2023-08-21T13:14:18;11.10;;;9.80;;
50709;SDS011;37033;49.994;21.992;2023-08-21T13:16:49;11.10;;;10.10;;
50709;SDS011;37033;49.994;21.992;2023-08-21T13:19:19;10.60;;;9.80;;
50709;SDS011;37033;49.994;21.992;2023-08-21T13:21:50;15.30;;;13.70;;
50709;SDS011;37033;49.994;21.992;2023-08-21T13:24:22;10.10;;;9.30;;
50709;SDS011;37033;49.994;21.992;2023-08-21T13:26:53;10.40;;;9.50;;
50709;SDS011;37033;49.994;21.992;2023-08-21T13:29:24;10.00;;;9.30;;
50709;SDS011;37033;49.994;21.992;2023-08-21T13:31:55;10.20;;;9.40;;
50709;SDS011;37033;49.994;21.992;2023-08-21T13:34:25;9.90;;;9.00;;
50709;SDS011;37033;49.994;21.992;2023-08-21T13:36:56;11.10;;;10.00;;
50709;SDS011;37033;49.994;21.992;2023-08-21T13:39:27;10.50;;;9.50;;
50709;SDS011;37033;49.994;21.992;2023-08-21T13:41:58;14.90;;;9.60;;
50709;SDS011;37033;49.994;21.992;2023-08-21T13:44:29;10.30;;;9.30;;
50709;SDS011;37033;49.994;21.992;2023-08-21T13:46:59;9.90;;;9.10;;
50709;SDS011;37033;49.994;21.992;2023-08-21T13:49:30;10.20;;;8.50;;
50709;SDS011;37033;49.994;21.992;2023-08-21T13:52:00;9.40;;;8.50;;
50709;SDS011;37033;49.994;21.992;2023-08-21T13:54:32;9.50;;;8.60;;
50709;SDS011;37033;49.994;21.992;2023-08-21T13:57:02;9.10;;;8.40;;
50709;SDS011;37033;49.994;21.992;2023-08-21T13:59:33;10.10;;;9.20;;
50709;SDS011;37033;49.994;21.992;2023-08-21T14:02:04;10.30;;;9.30;;
50709;SDS011;37033;49.994;21.992;2023-08-21T14:04:35;10.40;;;9.60;;
50709;SDS011;37033;49.994;21.992;2023-08-21T14:07:06;8.90;;;8.20;;
50709;SDS011;37033;49.994;21.992;2023-08-21T14:09:36;14.20;;;8.70;;
50709;SDS011;37033;49.994;21.992;2023-08-21T14:12:07;8.80;;;8.00;;
50709;SDS011;37033;49.994;21.992;2023-08-21T14:14:38;9.10;;;8.30;;
50709;SDS011;37033;49.994;21.992;2023-08-21T14:17:09;11.10;;;8.10;;
50709;SDS011;37033;49.994;21.992;2023-08-21T14:19:39;9.60;;;7.90;;
50709;SDS011;37033;49.994;21.992;2023-08-21T14:22:10;8.60;;;7.80;;
50709;SDS011;37033;49.994;21.992;2023-08-21T14:24:41;9.30;;;8.50;;
50709;SDS011;37033;49.994;21.992;2023-08-21T14:27:11;7.70;;;6.90;;
50709;SDS011;37033;49.994;21.992;2023-08-21T14:29:44;7.90;;;7.20;;
50709;SDS011;37033;49.994;21.992;2023-08-21T14:32:15;8.40;;;7.70;;
50709;SDS011;37033;49.994;21.992;2023-08-21T14:34:46;8.20;;;7.30;;
50709;SDS011;37033;49.994;21.992;2023-08-21T14:37:16;7.30;;;6.60;;
50709;SDS011;37033;49.994;21.992;2023-08-21T14:39:47;8.20;;;7.50;;
50709;SDS011;37033;49.994;21.992;2023-08-21T14:42:18;7.70;;;6.90;;
50709;SDS011;37033;49.994;21.992;2023-08-21T14:44:49;7.70;;;6.90;;